sensor_id;sensor_type;location;lat;lon;timestamp;P1;P2;P0
77320;PMS7003;66382;52.252;8.780;2023-04-24T00:00:25;1.00;1.00;1.00
77320;PMS7003;66382;52.252;8.780;2023-04-24T00:02:51;1.00;1.00;1.00
77320;PMS7003;66382;52.252;8.780;2023-04-24T00:05:16;1.00;1.00;1.00
77320;PMS7003;66382;52.252;8.780;2023-04-24T00:07:44;0.67;0.67;0.00
77320;PMS7003;66382;52.252;8.780;2023-04-24T00:10:10;0.00;0.00;0.00
77320;PMS7003;66382;52.252;8.780;2023-04-24T00:12:36;1.00;1.00;1.00
77320;PMS7003;66382;52.252;8.780;2023-04-24T00:15:02;0.00;0.00;0.00
77320;PMS7003;66382;52.252;8.780;2023-04-24T00:17:28;0.00;0.00;0.00
77320;PMS7003;66382;52.252;8.780;2023-04-24T00:19:54;0.00;0.00;0.00
77320;PMS7003;66382;52.252;8.780;2023-04-24T00:22:20;0.33;0.33;0.00
77320;PMS7003;66382;52.252;8.780;2023-04-24T00:24:47;0.00;0.00;0.00
77320;PMS7003;66382;52.252;8.780;2023-04-24T00:27:12;0.00;0.00;0.00
77320;PMS7003;66382;52.252;8.780;2023-04-24T00:29:38;1.00;1.00;1.00
77320;PMS7003;66382;52.252;8.780;2023-04-24T00:32:04;0.00;0.00;0.00
77320;PMS7003;66382;52.252;8.780;2023-04-24T00:34:29;0.00;0.00;0.00
77320;PMS7003;66382;52.252;8.780;2023-04-24T00:36:55;0.00;0.00;0.00
77320;PMS7003;66382;52.252;8.780;2023-04-24T00:39:21;0.00;0.00;0.00
77320;PMS7003;66382;52.252;8.780;2023-04-24T00:41:48;0.00;0.00;0.00
77320;PMS7003;66382;52.252;8.780;2023-04-24T00:44:14;0.00;0.00;0.00
77320;PMS7003;66382;52.252;8.780;2023-04-24T00:46:40;0.00;0.00;0.00
77320;PMS7003;66382;52.252;8.780;2023-04-24T00:49:06;0.00;0.00;0.00
77320;PMS7003;66382;52.252;8.780;2023-04-24T00:51:32;0.00;0.00;0.00
77320;PMS7003;66382;52.252;8.780;2023-04-24T00:53:57;0.00;0.00;0.00
77320;PMS7003;66382;52.252;8.780;2023-04-24T00:56:23;0.00;0.00;0.00
77320;PMS7003;66382;52.252;8.780;2023-04-24T00:58:50;0.00;0.00;0.00
77320;PMS7003;66382;52.252;8.780;2023-04-24T01:01:16;0.00;0.00;0.00
77320;PMS7003;66382;52.252;8.780;2023-04-24T01:03:42;0.00;0.00;0.00
77320;PMS7003;66382;52.252;8.780;2023-04-24T01:06:08;0.00;0.00;0.00
77320;PMS7003;66382;52.252;8.780;2023-04-24T01:08:35;0.00;0.00;0.00
77320;PMS7003;66382;52.252;8.780;2023-04-24T01:11:02;0.00;0.00;0.00
77320;PMS7003;66382;52.252;8.780;2023-04-24T01:13:29;0.00;0.00;0.00
77320;PMS7003;66382;52.252;8.780;2023-04-24T01:15:56;0.00;0.00;0.00
77320;PMS7003;66382;52.252;8.780;2023-04-24T01:18:22;0.00;0.00;0.00
77320;PMS7003;66382;52.252;8.780;2023-04-24T01:20:48;0.00;0.00;0.00
77320;PMS7003;66382;52.252;8.780;2023-04-24T01:23:19;0.00;0.00;0.00
77320;PMS7003;66382;52.252;8.780;2023-04-24T01:25:45;0.00;0.00;0.00
77320;PMS7003;66382;52.252;8.780;2023-04-24T01:28:11;0.00;0.00;0.00
77320;PMS7003;66382;52.252;8.780;2023-04-24T01:30:37;0.00;0.00;0.00
77320;PMS7003;66382;52.252;8.780;2023-04-24T01:33:03;0.00;0.00;0.00
77320;PMS7003;66382;52.252;8.780;2023-04-24T01:35:29;0.00;0.00;0.00
77320;PMS7003;66382;52.252;8.780;2023-04-24T01:37:55;1.00;1.00;0.33
77320;PMS7003;66382;52.252;8.780;2023-04-24T01:40:22;0.00;0.00;0.00
77320;PMS7003;66382;52.252;8.780;2023-04-24T01:42:48;0.00;0.00;0.00
77320;PMS7003;66382;52.252;8.780;2023-04-24T01:45:13;0.00;0.00;0.00
77320;PMS7003;66382;52.252;8.780;2023-04-24T01:47:39;0.00;0.00;0.00
77320;PMS7003;66382;52.252;8.780;2023-04-24T01:50:05;1.00;1.00;1.00
77320;PMS7003;66382;52.252;8.780;2023-04-24T01:52:32;0.33;0.33;0.33
77320;PMS7003;66382;52.252;8.780;2023-04-24T01:54:59;1.00;1.00;1.00
77320;PMS7003;66382;52.252;8.780;2023-04-24T01:57:26;1.00;1.00;1.00
77320;PMS7003;66382;52.252;8.780;2023-04-24T01:59:52;0.67;0.67;0.33
77320;PMS7003;66382;52.252;8.780;2023-04-24T02:02:17;0.00;0.00;0.00
77320;PMS7003;66382;52.252;8.780;2023-04-24T02:04:43;0.00;0.00;0.00
77320;PMS7003;66382;52.252;8.780;2023-04-24T02:07:09;0.00;0.00;0.00
77320;PMS7003;66382;52.252;8.780;2023-04-24T02:09:35;1.00;1.00;0.33
77320;PMS7003;66382;52.252;8.780;2023-04-24T02:12:00;0.00;0.00;0.00
77320;PMS7003;66382;52.252;8.780;2023-04-24T02:14:27;0.00;0.00;0.00
77320;PMS7003;66382;52.252;8.780;2023-04-24T02:16:53;1.00;1.00;1.00
77320;PMS7003;66382;52.252;8.780;2023-04-24T02:19:19;0.00;0.00;0.00
77320;PMS7003;66382;52.252;8.780;2023-04-24T02:21:44;0.33;0.33;0.00
77320;PMS7003;66382;52.252;8.780;2023-04-24T02:24:10;1.00;1.00;1.00
77320;PMS7003;66382;52.252;8.780;2023-04-24T02:26:36;1.00;1.00;1.00
77320;PMS7003;66382;52.252;8.780;2023-04-24T02:29:01;1.00;1.00;1.00
77320;PMS7003;66382;52.252;8.780;2023-04-24T02:31:29;1.00;1.00;1.00
77320;PMS7003;66382;52.252;8.780;2023-04-24T02:33:54;1.00;1.00;1.00
77320;PMS7003;66382;52.252;8.780;2023-04-24T02:36:20;1.00;1.00;1.00
77320;PMS7003;66382;52.252;8.780;2023-04-24T02:38:46;0.33;0.33;0.00
77320;PMS7003;66382;52.252;8.780;2023-04-24T02:41:11;1.00;1.00;1.00
77320;PMS7003;66382;52.252;8.780;2023-04-24T02:43:37;1.00;1.00;1.00
77320;PMS7003;66382;52.252;8.780;2023-04-24T02:46:03;1.33;1.33;1.00
77320;PMS7003;66382;52.252;8.780;2023-04-24T02:48:30;0.00;0.00;0.00
77320;PMS7003;66382;52.252;8.780;2023-04-24T02:50:55;1.33;1.33;1.33
77320;PMS7003;66382;52.252;8.780;2023-04-24T02:53:21;1.00;1.00;1.00
77320;PMS7003;66382;52.252;8.780;2023-04-24T02:55:47;1.00;1.00;1.00
77320;PMS7003;66382;52.252;8.780;2023-04-24T02:58:12;1.00;1.00;1.00
77320;PMS7003;66382;52.252;8.780;2023-04-24T03:00:38;2.00;2.00;2.00
77320;PMS7003;66382;52.252;8.780;2023-04-24T03:03:04;2.00;2.00;2.00
77320;PMS7003;66382;52.252;8.780;2023-04-24T03:05:31;1.00;1.00;1.00
77320;PMS7003;66382;52.252;8.780;2023-04-24T03:07:57;2.00;2.00;1.33
77320;PMS7003;66382;52.252;8.780;2023-04-24T03:10:23;2.00;2.00;2.00
77320;PMS7003;66382;52.252;8.780;2023-04-24T03:12:48;2.00;2.00;2.00
77320;PMS7003;66382;52.252;8.780;2023-04-24T03:15:14;3.00;3.00;3.00
77320;PMS7003;66382;52.252;8.780;2023-04-24T03:17:40;2.00;2.00;2.00
77320;PMS7003;66382;52.252;8.780;2023-04-24T03:20:06;1.00;1.00;1.00
77320;PMS7003;66382;52.252;8.780;2023-04-24T03:22:34;2.33;2.33;2.00
77320;PMS7003;66382;52.252;8.780;2023-04-24T03:25:00;3.00;3.00;3.00
77320;PMS7003;66382;52.252;8.780;2023-04-24T03:27:26;3.00;3.00;2.67
77320;PMS7003;66382;52.252;8.780;2023-04-24T03:29:51;2.00;2.00;1.00
77320;PMS7003;66382;52.252;8.780;2023-04-24T03:32:17;3.00;3.00;2.00
77320;PMS7003;66382;52.252;8.780;2023-04-24T03:34:43;2.00;2.00;2.00
77320;PMS7003;66382;52.252;8.780;2023-04-24T03:37:09;2.00;2.00;2.00
77320;PMS7003;66382;52.252;8.780;2023-04-24T03:39:36;2.00;2.00;2.00
77320;PMS7003;66382;52.252;8.780;2023-04-24T03:42:01;1.33;1.33;1.00
77320;PMS7003;66382;52.252;8.780;2023-04-24T03:44:27;2.00;2.00;2.00
77320;PMS7003;66382;52.252;8.780;2023-04-24T03:46:53;3.00;3.00;2.00
77320;PMS7003;66382;52.252;8.780;2023-04-24T03:49:18;0.00;0.00;0.00
77320;PMS7003;66382;52.252;8.780;2023-04-24T03:51:44;2.00;2.00;2.00
77320;PMS7003;66382;52.252;8.780;2023-04-24T03:54:10;1.33;1.33;1.00
77320;PMS7003;66382;52.252;8.780;2023-04-24T03:56:37;2.00;2.00;2.00
77320;PMS7003;66382;52.252;8.780;2023-04-24T03:59:02;2.00;2.00;2.00
77320;PMS7003;66382;52.252;8.780;2023-04-24T04:01:28;1.00;1.00;0.00
77320;PMS7003;66382;52.252;8.780;2023-04-24T04:03:54;2.33;2.33;2.33
77320;PMS7003;66382;52.252;8.780;2023-04-24T04:06:19;1.33;1.33;1.33
77320;PMS7003;66382;52.252;8.780;2023-04-24T04:08:45;3.00;3.00;2.00
77320;PMS7003;66382;52.252;8.780;2023-04-24T04:11:11;2.00;2.00;2.00
77320;PMS7003;66382;52.252;8.780;2023-04-24T04:13:38;2.00;2.00;2.00
77320;PMS7003;66382;52.252;8.780;2023-04-24T04:16:04;1.00;1.00;1.00
77320;PMS7003;66382;52.252;8.780;2023-04-24T04:18:30;2.67;2.67;2.00
77320;PMS7003;66382;52.252;8.780;2023-04-24T04:20:56;2.33;2.33;2.00
77320;PMS7003;66382;52.252;8.780;2023-04-24T04:23:22;1.67;1.67;1.67
77320;PMS7003;66382;52.252;8.780;2023-04-24T04:25:47;2.00;2.00;1.33
77320;PMS7003;66382;52.252;8.780;2023-04-24T04:28:13;1.00;1.00;1.00
77320;PMS7003;66382;52.252;8.780;2023-04-24T04:30:40;2.00;2.00;2.00
77320;PMS7003;66382;52.252;8.780;2023-04-24T04:33:06;3.00;3.00;2.00
77320;PMS7003;66382;52.252;8.780;2023-04-24T04:35:31;2.00;2.00;2.00
77320;PMS7003;66382;52.252;8.780;2023-04-24T04:37:57;3.00;2.00;2.00
77320;PMS7003;66382;52.252;8.780;2023-04-24T04:40:23;3.00;3.00;3.00
77320;PMS7003;66382;52.252;8.780;2023-04-24T04:42:48;2.00;2.00;2.00
77320;PMS7003;66382;52.252;8.780;2023-04-24T04:45:14;2.33;2.33;2.33
77320;PMS7003;66382;52.252;8.780;2023-04-24T04:47:41;3.00;3.00;2.33
77320;PMS7003;66382;52.252;8.780;2023-04-24T04:50:07;3.00;3.00;2.00
77320;PMS7003;66382;52.252;8.780;2023-04-24T04:52:34;2.00;2.00;2.00
77320;PMS7003;66382;52.252;8.780;2023-04-24T04:55:00;3.00;3.00;3.00
77320;PMS7003;66382;52.252;8.780;2023-04-24T04:57:25;3.00;3.00;3.00
77320;PMS7003;66382;52.252;8.780;2023-04-24T04:59:51;3.67;3.67;3.33
77320;PMS7003;66382;52.252;8.780;2023-04-24T05:02:17;2.67;2.67;2.67
77320;PMS7003;66382;52.252;8.780;2023-04-24T05:04:44;4.00;4.00;3.00
77320;PMS7003;66382;52.252;8.780;2023-04-24T05:07:09;2.67;2.67;2.67
77320;PMS7003;66382;52.252;8.780;2023-04-24T05:09:35;4.75;4.75;4.00
77320;PMS7003;66382;52.252;8.780;2023-04-24T05:12:01;4.00;4.00;4.00
77320;PMS7003;66382;52.252;8.780;2023-04-24T05:14:26;6.00;6.00;4.25
77320;PMS7003;66382;52.252;8.780;2023-04-24T05:16:52;5.00;5.00;4.25
77320;PMS7003;66382;52.252;8.780;2023-04-24T05:19:18;6.25;6.25;5.50
77320;PMS7003;66382;52.252;8.780;2023-04-24T05:21:45;6.25;6.25;5.50
77320;PMS7003;66382;52.252;8.780;2023-04-24T05:24:11;9.75;9.00;8.00
77320;PMS7003;66382;52.252;8.780;2023-04-24T05:26:37;13.00;13.00;9.50
77320;PMS7003;66382;52.252;8.780;2023-04-24T05:29:02;13.75;13.75;11.00
77320;PMS7003;66382;52.252;8.780;2023-04-24T05:31:28;14.25;14.25;11.00
77320;PMS7003;66382;52.252;8.780;2023-04-24T05:33:54;14.50;14.50;10.75
77320;PMS7003;66382;52.252;8.780;2023-04-24T05:36:19;14.50;14.50;10.00
77320;PMS7003;66382;52.252;8.780;2023-04-24T05:38:47;14.00;14.00;11.00
77320;PMS7003;66382;52.252;8.780;2023-04-24T05:41:12;13.00;13.00;11.00
77320;PMS7003;66382;52.252;8.780;2023-04-24T05:43:38;12.25;12.25;9.50
77320;PMS7003;66382;52.252;8.780;2023-04-24T05:46:04;13.25;13.25;11.50
77320;PMS7003;66382;52.252;8.780;2023-04-24T05:48:30;10.75;10.75;9.50
77320;PMS7003;66382;52.252;8.780;2023-04-24T05:50:55;13.50;13.50;10.50
77320;PMS7003;66382;52.252;8.780;2023-04-24T05:53:21;15.00;15.00;12.00
77320;PMS7003;66382;52.252;8.780;2023-04-24T05:55:48;18.25;18.25;12.00
77320;PMS7003;66382;52.252;8.780;2023-04-24T05:58:14;17.25;17.25;12.75
77320;PMS7003;66382;52.252;8.780;2023-04-24T06:00:39;17.75;17.50;13.25
77320;PMS7003;66382;52.252;8.780;2023-04-24T06:03:05;13.75;13.75;11.00
77320;PMS7003;66382;52.252;8.780;2023-04-24T06:05:31;15.00;15.00;13.00
77320;PMS7003;66382;52.252;8.780;2023-04-24T06:07:57;17.00;17.00;13.50
77320;PMS7003;66382;52.252;8.780;2023-04-24T06:10:23;19.00;19.00;15.00
77320;PMS7003;66382;52.252;8.780;2023-04-24T06:12:50;16.00;16.00;13.00
77320;PMS7003;66382;52.252;8.780;2023-04-24T06:15:16;15.75;15.75;12.00
77320;PMS7003;66382;52.252;8.780;2023-04-24T06:17:42;17.75;17.75;13.00
77320;PMS7003;66382;52.252;8.780;2023-04-24T06:20:08;14.25;14.25;11.00
77320;PMS7003;66382;52.252;8.780;2023-04-24T06:22:34;18.00;18.00;12.50
77320;PMS7003;66382;52.252;8.780;2023-04-24T06:25:00;16.50;16.50;12.50
77320;PMS7003;66382;52.252;8.780;2023-04-24T06:27:25;18.00;17.75;14.00
77320;PMS7003;66382;52.252;8.780;2023-04-24T06:29:52;17.00;17.00;13.00
77320;PMS7003;66382;52.252;8.780;2023-04-24T06:32:18;18.00;18.00;13.00
77320;PMS7003;66382;52.252;8.780;2023-04-24T06:34:44;16.75;16.75;13.00
77320;PMS7003;66382;52.252;8.780;2023-04-24T06:37:10;19.00;19.00;14.75
77320;PMS7003;66382;52.252;8.780;2023-04-24T06:39:36;21.00;20.00;15.00
77320;PMS7003;66382;52.252;8.780;2023-04-24T06:42:01;19.50;19.50;14.00
77320;PMS7003;66382;52.252;8.780;2023-04-24T06:44:27;19.50;19.50;14.75
77320;PMS7003;66382;52.252;8.780;2023-04-24T06:46:54;23.25;22.25;16.00
77320;PMS7003;66382;52.252;8.780;2023-04-24T06:49:20;19.75;19.75;14.50
77320;PMS7003;66382;52.252;8.780;2023-04-24T06:51:46;18.25;18.25;15.00
77320;PMS7003;66382;52.252;8.780;2023-04-24T06:54:11;21.25;21.25;15.00
77320;PMS7003;66382;52.252;8.780;2023-04-24T06:56:37;21.00;21.00;14.25
77320;PMS7003;66382;52.252;8.780;2023-04-24T06:59:03;21.25;21.25;15.00
77320;PMS7003;66382;52.252;8.780;2023-04-24T07:01:29;19.00;19.00;14.50
77320;PMS7003;66382;52.252;8.780;2023-04-24T07:03:56;19.75;19.75;15.25
77320;PMS7003;66382;52.252;8.780;2023-04-24T07:06:21;19.00;19.00;14.25
77320;PMS7003;66382;52.252;8.780;2023-04-24T07:08:47;17.75;17.75;14.25
77320;PMS7003;66382;52.252;8.780;2023-04-24T07:11:13;19.50;19.50;14.00
77320;PMS7003;66382;52.252;8.780;2023-04-24T07:13:39;23.25;23.25;17.25
77320;PMS7003;66382;52.252;8.780;2023-04-24T07:16:04;21.25;21.25;15.00
77320;PMS7003;66382;52.252;8.780;2023-04-24T07:18:30;20.00;20.00;17.00
77320;PMS7003;66382;52.252;8.780;2023-04-24T07:20:57;18.25;18.25;13.25
77320;PMS7003;66382;52.252;8.780;2023-04-24T07:23:23;20.50;20.50;15.50
77320;PMS7003;66382;52.252;8.780;2023-04-24T07:25:48;23.50;23.00;15.75
77320;PMS7003;66382;52.252;8.780;2023-04-24T07:28:14;24.25;24.25;17.00
77320;PMS7003;66382;52.252;8.780;2023-04-24T07:30:40;21.00;21.00;18.00
77320;PMS7003;66382;52.252;8.780;2023-04-24T07:33:06;18.00;18.00;14.25
77320;PMS7003;66382;52.252;8.780;2023-04-24T07:35:31;19.75;19.75;15.00
77320;PMS7003;66382;52.252;8.780;2023-04-24T07:37:59;21.75;21.75;16.00
77320;PMS7003;66382;52.252;8.780;2023-04-24T07:40:25;25.25;25.25;18.75
77320;PMS7003;66382;52.252;8.780;2023-04-24T07:42:51;23.00;22.50;15.50
77320;PMS7003;66382;52.252;8.780;2023-04-24T07:45:17;21.25;21.25;16.75
77320;PMS7003;66382;52.252;8.780;2023-04-24T07:47:43;20.75;20.75;15.25
77320;PMS7003;66382;52.252;8.780;2023-04-24T07:50:09;19.75;19.75;14.75
77320;PMS7003;66382;52.252;8.780;2023-04-24T07:52:35;26.50;26.50;17.25
77320;PMS7003;66382;52.252;8.780;2023-04-24T07:55:02;22.75;22.75;17.50
77320;PMS7003;66382;52.252;8.780;2023-04-24T07:57:28;21.25;20.75;16.00
77320;PMS7003;66382;52.252;8.780;2023-04-24T07:59:54;20.00;20.00;14.75
77320;PMS7003;66382;52.252;8.780;2023-04-24T08:02:20;27.25;27.25;20.00
77320;PMS7003;66382;52.252;8.780;2023-04-24T08:04:46;21.25;21.25;16.25
77320;PMS7003;66382;52.252;8.780;2023-04-24T08:07:11;21.75;21.75;15.00
77320;PMS7003;66382;52.252;8.780;2023-04-24T08:09:37;21.25;21.25;16.00
77320;PMS7003;66382;52.252;8.780;2023-04-24T08:12:04;23.00;22.75;17.00
77320;PMS7003;66382;52.252;8.780;2023-04-24T08:14:30;19.00;19.00;12.75
77320;PMS7003;66382;52.252;8.780;2023-04-24T08:16:56;15.75;15.75;12.00
77320;PMS7003;66382;52.252;8.780;2023-04-24T08:19:22;17.00;17.00;13.75
77320;PMS7003;66382;52.252;8.780;2023-04-24T08:21:47;16.00;16.00;12.75
77320;PMS7003;66382;52.252;8.780;2023-04-24T08:24:13;15.25;15.25;12.50
77320;PMS7003;66382;52.252;8.780;2023-04-24T08:26:39;17.00;17.00;13.50
77320;PMS7003;66382;52.252;8.780;2023-04-24T08:29:06;12.75;12.75;9.50
77320;PMS7003;66382;52.252;8.780;2023-04-24T08:31:32;12.50;12.50;10.00
77320;PMS7003;66382;52.252;8.780;2023-04-24T08:33:58;15.00;15.00;12.00
77320;PMS7003;66382;52.252;8.780;2023-04-24T08:36:24;13.00;13.00;10.75
77320;PMS7003;66382;52.252;8.780;2023-04-24T08:38:50;15.50;15.50;11.00
77320;PMS7003;66382;52.252;8.780;2023-04-24T08:41:15;10.00;10.00;8.75
77320;PMS7003;66382;52.252;8.780;2023-04-24T08:43:43;12.75;12.75;11.00
77320;PMS7003;66382;52.252;8.780;2023-04-24T08:46:12;13.75;13.75;10.75
77320;PMS7003;66382;52.252;8.780;2023-04-24T08:48:38;13.50;13.50;11.50
77320;PMS7003;66382;52.252;8.780;2023-04-24T08:51:05;13.50;13.50;11.00
77320;PMS7003;66382;52.252;8.780;2023-04-24T08:53:32;14.75;14.75;12.00
77320;PMS7003;66382;52.252;8.780;2023-04-24T08:55:58;14.00;14.00;11.00
77320;PMS7003;66382;52.252;8.780;2023-04-24T08:58:26;15.50;15.50;13.00
77320;PMS7003;66382;52.252;8.780;2023-04-24T09:00:53;13.50;13.50;11.75
77320;PMS7003;66382;52.252;8.780;2023-04-24T09:03:21;13.50;13.50;11.25
77320;PMS7003;66382;52.252;8.780;2023-04-24T09:05:48;19.75;19.75;15.50
77320;PMS7003;66382;52.252;8.780;2023-04-24T09:08:14;12.75;12.75;10.25
77320;PMS7003;66382;52.252;8.780;2023-04-24T09:10:42;11.75;11.75;10.50
77320;PMS7003;66382;52.252;8.780;2023-04-24T09:13:08;12.75;12.75;10.00
77320;PMS7003;66382;52.252;8.780;2023-04-24T09:15:34;11.00;11.00;10.00
77320;PMS7003;66382;52.252;8.780;2023-04-24T09:18:00;12.50;12.50;11.00
77320;PMS7003;66382;52.252;8.780;2023-04-24T09:20:28;9.00;9.00;9.00
77320;PMS7003;66382;52.252;8.780;2023-04-24T09:22:54;14.00;14.00;12.75
77320;PMS7003;66382;52.252;8.780;2023-04-24T09:25:20;11.00;11.00;9.67
77320;PMS7003;66382;52.252;8.780;2023-04-24T09:27:46;10.00;10.00;8.00
77320;PMS7003;66382;52.252;8.780;2023-04-24T09:30:12;11.00;11.00;8.67
77320;PMS7003;66382;52.252;8.780;2023-04-24T09:32:38;9.00;9.00;7.33
77320;PMS7003;66382;52.252;8.780;2023-04-24T09:35:05;9.00;9.00;8.00
77320;PMS7003;66382;52.252;8.780;2023-04-24T09:37:36;8.00;8.00;7.33
77320;PMS7003;66382;52.252;8.780;2023-04-24T09:40:12;7.00;7.00;6.00
77320;PMS7003;66382;52.252;8.780;2023-04-24T09:42:42;8.75;8.75;7.50
77320;PMS7003;66382;52.252;8.780;2023-04-24T09:45:09;8.75;8.75;8.00
77320;PMS7003;66382;52.252;8.780;2023-04-24T09:47:35;9.25;9.25;8.75
77320;PMS7003;66382;52.252;8.780;2023-04-24T09:50:08;8.50;8.50;7.50
77320;PMS7003;66382;52.252;8.780;2023-04-24T09:52:36;9.00;9.00;8.00
77320;PMS7003;66382;52.252;8.780;2023-04-24T09:55:10;6.75;6.75;6.25
77320;PMS7003;66382;52.252;8.780;2023-04-24T09:57:40;8.75;8.75;7.25
77320;PMS7003;66382;52.252;8.780;2023-04-24T10:00:13;7.75;7.75;6.75
77320;PMS7003;66382;52.252;8.780;2023-04-24T10:02:42;6.50;6.50;5.50
77320;PMS7003;66382;52.252;8.780;2023-04-24T10:05:08;6.67;6.67;6.00
77320;PMS7003;66382;52.252;8.780;2023-04-24T10:07:38;6.75;6.75;5.75
77320;PMS7003;66382;52.252;8.780;2023-04-24T10:10:04;6.33;6.33;5.00
77320;PMS7003;66382;52.252;8.780;2023-04-24T10:12:31;6.50;6.50;5.25
77320;PMS7003;66382;52.252;8.780;2023-04-24T10:14:57;4.25;4.25;4.00
77320;PMS7003;66382;52.252;8.780;2023-04-24T10:17:24;5.00;5.00;4.50
77320;PMS7003;66382;52.252;8.780;2023-04-24T10:19:51;5.00;5.00;4.67
77320;PMS7003;66382;52.252;8.780;2023-04-24T10:22:17;5.00;5.00;5.00
77320;PMS7003;66382;52.252;8.780;2023-04-24T10:24:44;3.67;3.67;3.00
77320;PMS7003;66382;52.252;8.780;2023-04-24T10:27:12;4.00;4.00;4.00
77320;PMS7003;66382;52.252;8.780;2023-04-24T10:29:38;5.00;5.00;4.00
77320;PMS7003;66382;52.252;8.780;2023-04-24T10:32:06;6.00;6.00;5.00
77320;PMS7003;66382;52.252;8.780;2023-04-24T10:34:32;4.00;4.00;4.00
77320;PMS7003;66382;52.252;8.780;2023-04-24T10:36:58;4.33;4.33;4.33
77320;PMS7003;66382;52.252;8.780;2023-04-24T10:39:24;4.33;4.33;4.00
77320;PMS7003;66382;52.252;8.780;2023-04-24T10:41:51;1.00;1.00;0.00
77320;PMS7003;66382;52.252;8.780;2023-04-24T10:44:18;6.00;6.00;5.00
77320;PMS7003;66382;52.252;8.780;2023-04-24T10:46:49;3.33;3.33;2.67
77320;PMS7003;66382;52.252;8.780;2023-04-24T10:49:19;5.00;5.00;5.00
77320;PMS7003;66382;52.252;8.780;2023-04-24T10:51:54;7.00;7.00;6.00
77320;PMS7003;66382;52.252;8.780;2023-04-24T10:54:26;4.00;4.00;4.00
77320;PMS7003;66382;52.252;8.780;2023-04-24T10:56:56;4.00;4.00;4.00
77320;PMS7003;66382;52.252;8.780;2023-04-24T10:59:51;3.33;3.33;3.00
77320;PMS7003;66382;52.252;8.780;2023-04-24T11:02:38;4.33;4.33;4.00
77320;PMS7003;66382;52.252;8.780;2023-04-24T11:05:06;4.00;4.00;4.00
77320;PMS7003;66382;52.252;8.780;2023-04-24T11:07:42;8.00;8.00;6.00
77320;PMS7003;66382;52.252;8.780;2023-04-24T11:10:38;6.67;6.67;6.00
77320;PMS7003;66382;52.252;8.780;2023-04-24T11:13:06;6.00;6.00;5.00
77320;PMS7003;66382;52.252;8.780;2023-04-24T11:15:32;9.00;9.00;7.50
77320;PMS7003;66382;52.252;8.780;2023-04-24T11:17:58;9.00;9.00;8.00
77320;PMS7003;66382;52.252;8.780;2023-04-24T11:20:23;10.25;10.25;7.00
77320;PMS7003;66382;52.252;8.780;2023-04-24T11:22:50;8.25;8.25;7.50
77320;PMS7003;66382;52.252;8.780;2023-04-24T11:25:18;9.50;9.50;8.00
77320;PMS7003;66382;52.252;8.780;2023-04-24T11:27:44;8.00;8.00;7.00
77320;PMS7003;66382;52.252;8.780;2023-04-24T11:30:11;8.75;8.75;7.50
77320;PMS7003;66382;52.252;8.780;2023-04-24T11:32:42;6.00;6.00;5.25
77320;PMS7003;66382;52.252;8.780;2023-04-24T11:35:08;9.00;9.00;7.00
77320;PMS7003;66382;52.252;8.780;2023-04-24T11:37:38;8.50;8.50;7.00
77320;PMS7003;66382;52.252;8.780;2023-04-24T11:40:06;10.00;10.00;9.00
77320;PMS7003;66382;52.252;8.780;2023-04-24T11:42:33;7.00;7.00;6.00
77320;PMS7003;66382;52.252;8.780;2023-04-24T11:44:59;9.75;9.75;8.50
77320;PMS7003;66382;52.252;8.780;2023-04-24T11:47:30;10.00;10.00;8.00
77320;PMS7003;66382;52.252;8.780;2023-04-24T11:49:57;9.00;9.00;8.00
77320;PMS7003;66382;52.252;8.780;2023-04-24T11:52:23;8.00;8.00;7.00
77320;PMS7003;66382;52.252;8.780;2023-04-24T11:54:49;8.00;8.00;6.50
77320;PMS7003;66382;52.252;8.780;2023-04-24T11:57:15;7.00;7.00;6.25
77320;PMS7003;66382;52.252;8.780;2023-04-24T11:59:41;8.00;8.00;6.00
77320;PMS7003;66382;52.252;8.780;2023-04-24T12:02:07;9.00;9.00;7.00
77320;PMS7003;66382;52.252;8.780;2023-04-24T12:04:41;6.25;6.25;4.75
77320;PMS7003;66382;52.252;8.780;2023-04-24T12:07:06;6.75;6.75;6.00
77320;PMS7003;66382;52.252;8.780;2023-04-24T12:09:42;5.50;4.75;4.00
77320;PMS7003;66382;52.252;8.780;2023-04-24T12:12:09;5.00;5.00;3.33
77320;PMS7003;66382;52.252;8.780;2023-04-24T12:14:41;3.25;3.25;2.25
77320;PMS7003;66382;52.252;8.780;2023-04-24T12:17:12;1.00;1.00;1.00
77320;PMS7003;66382;52.252;8.780;2023-04-24T12:19:44;2.00;1.67;1.33
77320;PMS7003;66382;52.252;8.780;2023-04-24T12:22:12;1.67;1.67;1.67
77320;PMS7003;66382;52.252;8.780;2023-04-24T12:27:25;2.00;2.00;1.00
77320;PMS7003;66382;52.252;8.780;2023-04-24T12:29:51;2.00;2.00;1.00
77320;PMS7003;66382;52.252;8.780;2023-04-24T12:32:17;2.00;2.00;1.00
77320;PMS7003;66382;52.252;8.780;2023-04-24T12:34:43;2.00;2.00;2.00
77320;PMS7003;66382;52.252;8.780;2023-04-24T12:37:11;2.00;2.00;1.00
77320;PMS7003;66382;52.252;8.780;2023-04-24T12:39:36;1.00;1.00;1.00
77320;PMS7003;66382;52.252;8.780;2023-04-24T12:42:02;1.00;1.00;1.00
77320;PMS7003;66382;52.252;8.780;2023-04-24T12:44:28;2.00;2.00;2.00
77320;PMS7003;66382;52.252;8.780;2023-04-24T12:46:55;3.00;3.00;2.00
77320;PMS7003;66382;52.252;8.780;2023-04-24T12:49:20;2.00;2.00;1.25
77320;PMS7003;66382;52.252;8.780;2023-04-24T12:51:46;1.00;1.00;1.00
77320;PMS7003;66382;52.252;8.780;2023-04-24T12:54:13;3.50;3.50;2.25
77320;PMS7003;66382;52.252;8.780;2023-04-24T12:56:39;3.00;3.00;3.00
77320;PMS7003;66382;52.252;8.780;2023-04-24T12:59:05;2.00;2.00;1.25
77320;PMS7003;66382;52.252;8.780;2023-04-24T13:01:30;4.00;4.00;3.75
77320;PMS7003;66382;52.252;8.780;2023-04-24T13:03:56;4.75;4.75;3.50
77320;PMS7003;66382;52.252;8.780;2023-04-24T13:06:22;5.00;5.00;4.25
77320;PMS7003;66382;52.252;8.780;2023-04-24T13:08:47;5.00;5.00;4.25
77320;PMS7003;66382;52.252;8.780;2023-04-24T13:11:14;7.00;7.00;5.25
77320;PMS7003;66382;52.252;8.780;2023-04-24T13:13:40;5.75;5.75;4.75
77320;PMS7003;66382;52.252;8.780;2023-04-24T13:16:06;5.00;5.00;4.00
77320;PMS7003;66382;52.252;8.780;2023-04-24T13:18:31;7.25;7.25;5.00
77320;PMS7003;66382;52.252;8.780;2023-04-24T13:20:57;5.25;5.25;3.25
77320;PMS7003;66382;52.252;8.780;2023-04-24T13:23:23;5.00;5.00;4.25
77320;PMS7003;66382;52.252;8.780;2023-04-24T13:25:49;6.50;6.50;5.25
77320;PMS7003;66382;52.252;8.780;2023-04-24T13:28:16;7.00;7.00;5.25
77320;PMS7003;66382;52.252;8.780;2023-04-24T13:30:41;8.00;8.00;7.00
77320;PMS7003;66382;52.252;8.780;2023-04-24T13:33:07;4.75;4.75;4.00
77320;PMS7003;66382;52.252;8.780;2023-04-24T13:35:33;4.75;4.75;3.75
77320;PMS7003;66382;52.252;8.780;2023-04-24T13:37:58;4.75;4.75;4.00
77320;PMS7003;66382;52.252;8.780;2023-04-24T13:40:24;3.75;3.75;3.00
77320;PMS7003;66382;52.252;8.780;2023-04-24T13:42:50;5.00;5.00;4.75
77320;PMS7003;66382;52.252;8.780;2023-04-24T13:45:17;5.25;5.25;5.00
77320;PMS7003;66382;52.252;8.780;2023-04-24T13:47:42;6.00;6.00;4.75
77320;PMS7003;66382;52.252;8.780;2023-04-24T13:50:08;4.00;4.00;4.00
77320;PMS7003;66382;52.252;8.780;2023-04-24T13:52:35;6.50;5.75;5.00
77320;PMS7003;66382;52.252;8.780;2023-04-24T13:55:00;5.00;5.00;4.50
77320;PMS7003;66382;52.252;8.780;2023-04-24T13:57:26;5.00;5.00;4.00
77320;PMS7003;66382;52.252;8.780;2023-04-24T13:59:52;7.00;7.00;5.00
77320;PMS7003;66382;52.252;8.780;2023-04-24T14:02:19;4.75;4.75;4.00
77320;PMS7003;66382;52.252;8.780;2023-04-24T14:04:44;5.50;5.50;4.50
77320;PMS7003;66382;52.252;8.780;2023-04-24T14:07:10;6.00;6.00;4.00
77320;PMS7003;66382;52.252;8.780;2023-04-24T14:09:36;5.50;5.50;4.75